Terminal Aerodrome Forecast
Issued by NWS Tampa Bay Area, FL

Home | Current Version | Previous Version | Text Only | Print | Product List | Glossary On
Versions: 1 2 3 4 5 6 7 8 9 10 11 12 13 14 15 16
000
FTUS42 KTBW 201401 AAA
TAFSRQ
TAF AMD
KSRQ 201401Z 2014/2112 VRB03KT P6SM VCTS FEW025CB SCT050 SCT250
     FM201500 24005KT P6SM VCTS SCT035CB SCT250
     FM201800 26007KT P6SM VCTS SCT045CB BKN250
     FM202100 29007KT P6SM FEW050 BKN250
     FM210200 VRB03KT P6SM SCT250=

USA.gov is the U.S. government's official web portal to all federal, state and local government web resources and services.